createdAt,value
2022-09-16T00:03:57.764Z,101088.66
2022-09-16T00:09:19.389Z,101091.94
2022-09-16T00:14:41.033Z,101084.69
2022-09-16T00:20:02.945Z,101081.09
2022-09-16T00:25:24.644Z,101082.19
2022-09-16T00:30:46.309Z,101087.75
2022-09-16T00:36:16.634Z,101087.75
2022-09-16T00:41:38.343Z,101089.94
2022-09-16T00:47:00.061Z,101086.56
2022-09-16T00:52:22.176Z,101081.00
2022-09-16T00:57:45.680Z,101076.53
2022-09-16T01:03:07.421Z,101081.53
2022-09-16T01:08:29.083Z,101082.63
2022-09-16T01:13:52.344Z,101077.91
2022-09-16T01:19:55.734Z,101085.41
2022-09-16T01:25:51.603Z,101084.84
2022-09-16T01:31:31.139Z,101080.38
2022-09-16T01:36:58.840Z,101082.56
2022-09-16T01:42:29.559Z,101080.88
2022-09-16T01:48:00.414Z,101069.75
2022-09-16T01:53:34.878Z,101068.91
2022-09-16T01:59:03.113Z,101077.53
2022-09-16T02:04:33.197Z,101080.31
2022-09-16T02:09:59.122Z,101085.28
2022-09-16T02:15:23.338Z,101074.16
2022-09-16T02:20:48.091Z,101083.59
2022-09-16T02:26:15.359Z,101076.34
2022-09-16T02:31:39.324Z,101087.47
2022-09-16T02:37:08.810Z,101081.06
2022-09-16T02:42:31.791Z,101089.41
2022-09-16T02:47:53.503Z,101100.81
2022-09-16T02:53:33.033Z,101095.25
2022-09-16T02:58:55.561Z,101088.25
2022-09-16T03:04:19.990Z,101094.66
2022-09-16T03:09:45.995Z,101092.34
2022-09-16T03:15:22.924Z,101086.78
2022-09-16T03:21:06.320Z,101089.56
2022-09-16T03:26:48.867Z,101081.22
2022-09-16T03:32:24.082Z,101084.28
2022-09-16T03:37:47.237Z,101074.50
2022-09-16T03:43:16.401Z,101065.06
2022-09-16T03:48:38.067Z,101072.81
2022-09-16T03:53:59.733Z,101075.59
2022-09-16T03:59:21.962Z,101082.84
2022-09-16T04:04:43.637Z,101078.38
2022-09-16T04:10:07.120Z,101083.94
2022-09-16T04:15:28.760Z,101087.81
2022-09-16T04:20:50.822Z,101075.84
2022-09-16T04:26:12.524Z,101074.16
2022-09-16T04:31:34.485Z,101069.47
2022-09-16T04:36:56.185Z,101073.34
2022-09-16T04:42:17.889Z,101076.38
2022-09-16T04:47:39.523Z,101075.53
2022-09-16T04:53:01.235Z,101080.25
2022-09-16T04:58:22.875Z,101074.94
2022-09-16T05:03:47.256Z,101084.97
2022-09-16T05:09:11.386Z,101087.75
2022-09-16T05:14:33.037Z,101084.97
2022-09-16T05:19:54.986Z,101086.06
2022-09-16T05:25:16.818Z,101087.16
2022-09-16T05:30:38.509Z,101096.59
2022-09-16T05:36:11.630Z,101096.34
2022-09-16T05:41:33.430Z,101107.72
2022-09-16T05:46:55.756Z,101114.38
2022-09-16T05:52:17.483Z,101107.13
2022-09-16T05:57:39.169Z,101103.78
2022-09-16T06:03:00.781Z,101108.22
2022-09-16T06:08:22.423Z,101104.59
2022-09-16T06:13:44.640Z,101112.94
2022-09-16T06:19:11.128Z,101118.78
2022-09-16T06:24:32.764Z,101137.38
2022-09-16T06:29:54.407Z,101135.44
2022-09-16T06:35:16.165Z,101120.69
2022-09-16T06:40:37.792Z,101112.13
2022-09-16T06:46:20.277Z,101109.91
2022-09-16T06:51:42.025Z,101112.13
2022-09-16T06:57:05.022Z,101124.06
2022-09-16T07:02:28.790Z,101124.88
2022-09-16T07:07:50.517Z,101131.56
2022-09-16T07:13:12.283Z,101130.72
2022-09-16T07:18:34.191Z,101125.41
2022-09-16T07:24:00.898Z,101130.72
2022-09-16T07:29:22.622Z,101129.88
2022-09-16T07:34:44.254Z,101131.56
2022-09-16T07:40:06.527Z,101141.84
2022-09-16T07:45:28.258Z,101151.03
2022-09-16T07:51:19.043Z,101146.63
2022-09-16T07:56:42.342Z,101162.31
2022-09-16T08:02:04.374Z,101157.31
2022-09-16T08:07:26.153Z,101157.41
2022-09-16T08:12:48.988Z,101152.94
2022-09-16T08:18:10.673Z,101159.59
2022-09-16T08:23:32.344Z,101165.13
2022-09-16T08:29:10.535Z,101189.34
2022-09-16T08:34:32.486Z,101196.22
2022-09-16T08:39:54.275Z,101183.44
2022-09-16T08:45:20.746Z,101190.66
2022-09-16T08:50:45.508Z,101188.75
2022-09-16T08:56:14.113Z,101195.13
2022-09-16T09:01:49.903Z,101198.00
2022-09-16T09:07:29.160Z,101193.66
2022-09-16T09:13:14.503Z,101202.56
2022-09-16T09:18:58.447Z,101203.09
2022-09-16T09:24:39.468Z,101214.69
2022-09-16T09:30:21.867Z,101202.72
2022-09-16T09:36:03.012Z,101199.09
2022-09-16T09:41:42.214Z,101189.44
2022-09-16T09:47:10.967Z,101202.56
2022-09-16T09:52:45.051Z,101188.16
2022-09-16T09:58:09.393Z,101193.47
2022-09-16T10:03:32.159Z,101182.09
2022-09-16T10:08:58.186Z,101189.34
2022-09-16T10:14:35.291Z,101178.81
2022-09-16T10:20:07.574Z,101187.38
2022-09-16T10:25:32.198Z,101195.41
2022-09-16T10:30:56.830Z,101202.06
2022-09-16T10:36:22.098Z,101199.78
2022-09-16T10:41:47.932Z,101207.03
2022-09-16T10:47:27.882Z,101200.38
2022-09-16T10:52:49.978Z,101183.47
2022-09-16T10:58:18.657Z,101189.84
2022-09-16T11:03:43.414Z,101192.63
2022-09-16T11:09:19.599Z,101184.28
2022-09-16T11:15:09.497Z,101185.38
2022-09-16T11:21:05.847Z,101200.38
2022-09-16T11:26:36.879Z,101218.09
2022-09-16T11:32:13.499Z,101225.81
2022-09-16T11:37:44.191Z,101228.25
2022-09-16T11:43:29.393Z,101236.25
2022-09-16T11:49:04.798Z,101225.38
2022-09-16T11:54:41.395Z,101220.09
2022-09-16T12:00:10.589Z,101231.22
2022-09-16T12:05:49.295Z,101226.25
2022-09-16T12:11:23.159Z,101229.59
2022-09-16T12:16:54.106Z,101226.81
2022-09-16T12:22:24.333Z,101227.66
2022-09-16T12:27:53.231Z,101234.06
2022-09-16T12:33:21.166Z,101227.94
2022-09-16T12:38:42.930Z,101235.41
2022-09-16T12:44:33.461Z,101239.88
2022-09-16T12:50:16.044Z,101233.72
2022-09-16T12:55:51.568Z,101244.00
2022-09-16T13:01:22.633Z,101229.50
2022-09-16T13:06:56.133Z,101225.66
2022-09-16T13:12:41.014Z,101225.66
2022-09-16T13:18:14.290Z,101213.66
2022-09-16T13:23:43.685Z,101217.53
2022-09-16T13:29:24.921Z,101210.06
2022-09-16T13:34:46.557Z,101211.16
2022-09-16T13:40:15.823Z,101211.16
2022-09-16T13:45:46.934Z,101210.06
2022-09-16T13:51:18.512Z,101218.41
2022-09-16T13:56:57.173Z,101222.28
2022-09-16T14:02:45.554Z,101209.72
2022-09-16T14:08:32.804Z,101222.53
2022-09-16T14:14:05.847Z,101219.16
2022-09-16T14:19:32.672Z,101213.84
2022-09-16T14:25:06.154Z,101216.06
2022-09-16T14:30:28.917Z,101206.63
2022-09-16T14:35:53.791Z,101201.06
2022-09-16T14:41:44.931Z,101202.72
2022-09-16T14:47:28.348Z,101215.19
2022-09-16T14:52:58.409Z,101211.81
2022-09-16T14:58:22.211Z,101217.63
2022-09-16T15:03:55.183Z,101220.41
2022-09-16T15:09:33.352Z,101235.41
2022-09-16T15:14:55.501Z,101265.38
2022-09-16T15:20:23.608Z,101265.66
2022-09-16T15:25:57.479Z,101270.34
2022-09-16T15:31:36.900Z,101253.09
2022-09-16T15:36:59.188Z,101253.59
2022-09-16T15:42:24.101Z,101249.97
2022-09-16T15:47:59.668Z,101266.41
2022-09-16T15:53:33.963Z,101273.03
2022-09-16T15:59:00.867Z,101283.31
2022-09-16T16:04:31.873Z,101282.22
2022-09-16T16:09:53.832Z,101285.47
2022-09-16T16:15:18.730Z,101282.69
2022-09-16T16:20:41.192Z,101281.03
2022-09-16T16:26:07.708Z,101282.69
2022-09-16T16:31:29.420Z,101311.84
2022-09-16T16:36:51.215Z,101315.72
2022-09-16T16:42:14.126Z,101312.09
2022-09-16T16:47:35.755Z,101308.47
2022-09-16T16:52:57.451Z,101298.44
2022-09-16T16:58:19.516Z,101294.81
2022-09-16T17:03:42.086Z,101288.44
2022-09-16T17:09:05.352Z,101304.25
2022-09-16T17:14:30.098Z,101300.38
2022-09-16T17:19:51.717Z,101285.91
2022-09-16T17:25:13.544Z,101294.50
2022-09-16T17:30:35.297Z,101312.25
2022-09-16T17:36:05.188Z,101341.72
2022-09-16T17:41:27.757Z,101333.63
2022-09-16T17:46:49.773Z,101327.22
2022-09-16T17:52:11.446Z,101334.97
2022-09-16T17:57:33.547Z,101325.78
2022-09-16T18:02:55.797Z,101332.19
2022-09-16T18:08:17.797Z,101339.69
2022-09-16T18:13:40.690Z,101326.63
2022-09-16T18:19:03.596Z,101324.09
2022-09-16T18:24:25.294Z,101320.47
2022-09-16T18:29:48.471Z,101324.34
2022-09-16T18:35:11.977Z,101338.22
2022-09-16T18:40:39.362Z,101337.41
2022-09-16T18:46:29.018Z,101336.53
2022-09-16T18:51:52.530Z,101334.88
2022-09-16T18:57:14.469Z,101331.25
2022-09-16T19:02:37.472Z,101310.97
2022-09-16T19:07:59.156Z,101322.06
2022-09-16T19:13:20.779Z,101330.41
2022-09-16T19:18:42.414Z,101325.94
2022-09-16T19:24:07.021Z,101325.94
2022-09-16T19:29:28.660Z,101328.94
2022-09-16T19:34:50.322Z,101335.38
2022-09-16T19:40:11.998Z,101339.22
2022-09-16T19:45:33.754Z,101330.03
2022-09-16T19:50:55.430Z,101349.47
2022-09-16T19:56:21.463Z,101350.34
2022-09-16T20:01:44.014Z,101349.75
2022-09-16T20:07:05.995Z,101349.75
2022-09-16T20:12:27.679Z,101348.03
2022-09-16T20:17:49.299Z,101345.53
2022-09-16T20:23:10.973Z,101351.91
2022-09-16T20:28:37.699Z,101349.41
2022-09-16T20:34:00.056Z,101361.34
2022-09-16T20:39:22.326Z,101362.41
2022-09-16T20:44:47.603Z,101356.03
2022-09-16T20:50:11.172Z,101372.97
2022-09-16T20:55:33.300Z,101376.56
2022-09-16T21:00:55.194Z,101374.88
2022-09-16T21:06:17.080Z,101382.38
2022-09-16T21:11:42.825Z,101372.34
2022-09-16T21:17:04.463Z,101373.19
2022-09-16T21:22:26.224Z,101379.81
2022-09-16T21:27:47.853Z,101381.78
2022-09-16T21:33:09.513Z,101380.91
2022-09-16T21:38:32.140Z,101369.81
2022-09-16T21:43:55.860Z,101380.09
2022-09-16T21:49:24.398Z,101390.31
2022-09-16T21:54:46.202Z,101404.47
2022-09-16T22:00:09.080Z,101410.03
2022-09-16T22:05:31.225Z,101397.19
2022-09-16T22:10:52.944Z,101385.25
2022-09-16T22:16:17.615Z,101389.13
2022-09-16T22:21:42.144Z,101393.81
2022-09-16T22:27:03.925Z,101392.13
2022-09-16T22:32:25.629Z,101389.94
2022-09-16T22:37:50.157Z,101389.13
2022-09-16T22:43:11.943Z,101382.97
2022-09-16T22:48:34.105Z,101386.56
2022-09-16T22:53:56.094Z,101389.59
2022-09-16T22:59:20.210Z,101387.91
2022-09-16T23:04:41.892Z,101399.00
2022-09-16T23:10:08.541Z,101379.84
2022-09-16T23:15:32.095Z,101372.59
2022-09-16T23:21:01.265Z,101386.47
2022-09-16T23:26:26.646Z,101378.97
2022-09-16T23:31:48.372Z,101384.78
2022-09-16T23:37:10.267Z,101391.41
2022-09-16T23:42:31.956Z,101401.69
2022-09-16T23:47:53.824Z,101391.41
2022-09-16T23:53:15.674Z,101414.72
2022-09-16T23:58:37.941Z,101419.44
